sensor_id;sensor_type;location;lat;lon;timestamp;P1;durP1;ratioP1;P2;durP2;ratioP2
37609;SDS011;23457;51.966;8.230;2023-06-05T00:02:26;5.93;;;3.42;;
37609;SDS011;23457;51.966;8.230;2023-06-05T00:04:54;6.93;;;2.70;;
37609;SDS011;23457;51.966;8.230;2023-06-05T00:07:21;5.78;;;2.95;;
37609;SDS011;23457;51.966;8.230;2023-06-05T00:09:47;5.68;;;2.95;;
37609;SDS011;23457;51.966;8.230;2023-06-05T00:12:14;5.13;;;2.55;;
37609;SDS011;23457;51.966;8.230;2023-06-05T00:14:42;8.73;;;2.72;;
37609;SDS011;23457;51.966;8.230;2023-06-05T00:17:09;7.68;;;2.88;;
37609;SDS011;23457;51.966;8.230;2023-06-05T00:19:36;5.68;;;2.95;;
37609;SDS011;23457;51.966;8.230;2023-06-05T00:22:02;6.72;;;2.70;;
37609;SDS011;23457;51.966;8.230;2023-06-05T00:24:29;5.35;;;2.67;;
37609;SDS011;23457;51.966;8.230;2023-06-05T00:26:56;5.65;;;2.50;;
37609;SDS011;23457;51.966;8.230;2023-06-05T00:29:23;9.18;;;3.00;;
37609;SDS011;23457;51.966;8.230;2023-06-05T00:31:49;5.32;;;2.90;;
37609;SDS011;23457;51.966;8.230;2023-06-05T00:34:16;6.60;;;2.30;;
37609;SDS011;23457;51.966;8.230;2023-06-05T00:36:43;9.57;;;2.35;;
37609;SDS011;23457;51.966;8.230;2023-06-05T00:39:10;6.32;;;2.25;;
37609;SDS011;23457;51.966;8.230;2023-06-05T00:41:36;8.27;;;2.88;;
37609;SDS011;23457;51.966;8.230;2023-06-05T00:44:08;6.65;;;2.95;;
37609;SDS011;23457;51.966;8.230;2023-06-05T00:46:34;6.78;;;2.65;;
37609;SDS011;23457;51.966;8.230;2023-06-05T00:49:01;5.57;;;2.80;;
37609;SDS011;23457;51.966;8.230;2023-06-05T00:51:28;6.65;;;2.92;;
37609;SDS011;23457;51.966;8.230;2023-06-05T00:53:55;5.45;;;2.75;;
37609;SDS011;23457;51.966;8.230;2023-06-05T00:56:22;5.18;;;2.55;;
37609;SDS011;23457;51.966;8.230;2023-06-05T00:58:49;4.97;;;2.63;;
37609;SDS011;23457;51.966;8.230;2023-06-05T01:01:16;7.60;;;2.67;;
37609;SDS011;23457;51.966;8.230;2023-06-05T01:03:43;5.00;;;2.47;;
37609;SDS011;23457;51.966;8.230;2023-06-05T01:06:12;3.78;;;2.60;;
37609;SDS011;23457;51.966;8.230;2023-06-05T01:08:38;6.28;;;2.42;;
37609;SDS011;23457;51.966;8.230;2023-06-05T01:11:50;4.18;;;2.20;;
37609;SDS011;23457;51.966;8.230;2023-06-05T01:14:35;6.00;;;2.60;;
37609;SDS011;23457;51.966;8.230;2023-06-05T01:17:04;6.10;;;2.50;;
37609;SDS011;23457;51.966;8.230;2023-06-05T01:19:35;5.20;;;2.53;;
37609;SDS011;23457;51.966;8.230;2023-06-05T01:22:02;3.67;;;2.70;;
37609;SDS011;23457;51.966;8.230;2023-06-05T01:24:29;4.45;;;2.42;;
37609;SDS011;23457;51.966;8.230;2023-06-05T01:29:35;7.30;;;2.20;;
37609;SDS011;23457;51.966;8.230;2023-06-05T01:32:13;6.18;;;3.03;;
37609;SDS011;23457;51.966;8.230;2023-06-05T01:34:45;3.72;;;2.80;;
37609;SDS011;23457;51.966;8.230;2023-06-05T01:37:15;4.40;;;2.67;;
37609;SDS011;23457;51.966;8.230;2023-06-05T01:39:46;5.55;;;2.70;;
37609;SDS011;23457;51.966;8.230;2023-06-05T01:42:15;5.22;;;3.10;;
37609;SDS011;23457;51.966;8.230;2023-06-05T01:44:42;5.82;;;2.70;;
37609;SDS011;23457;51.966;8.230;2023-06-05T01:47:10;4.20;;;2.70;;
37609;SDS011;23457;51.966;8.230;2023-06-05T01:49:38;4.30;;;2.85;;
37609;SDS011;23457;51.966;8.230;2023-06-05T01:52:06;7.00;;;3.10;;
37609;SDS011;23457;51.966;8.230;2023-06-05T01:54:33;7.43;;;3.10;;
37609;SDS011;23457;51.966;8.230;2023-06-05T01:57:00;5.22;;;3.40;;
37609;SDS011;23457;51.966;8.230;2023-06-05T01:59:28;5.07;;;3.05;;
37609;SDS011;23457;51.966;8.230;2023-06-05T02:01:55;5.82;;;2.80;;
37609;SDS011;23457;51.966;8.230;2023-06-05T02:04:22;7.07;;;3.70;;
37609;SDS011;23457;51.966;8.230;2023-06-05T02:06:50;7.35;;;3.38;;
37609;SDS011;23457;51.966;8.230;2023-06-05T02:09:19;6.88;;;3.40;;
37609;SDS011;23457;51.966;8.230;2023-06-05T02:11:48;6.77;;;3.07;;
37609;SDS011;23457;51.966;8.230;2023-06-05T02:14:16;6.03;;;3.28;;
37609;SDS011;23457;51.966;8.230;2023-06-05T02:16:42;5.30;;;3.15;;
37609;SDS011;23457;51.966;8.230;2023-06-05T02:19:09;5.63;;;3.10;;
37609;SDS011;23457;51.966;8.230;2023-06-05T02:21:37;6.28;;;3.80;;
37609;SDS011;23457;51.966;8.230;2023-06-05T02:24:04;7.18;;;3.67;;
37609;SDS011;23457;51.966;8.230;2023-06-05T02:26:31;6.90;;;3.78;;
37609;SDS011;23457;51.966;8.230;2023-06-05T02:28:58;9.00;;;4.15;;
37609;SDS011;23457;51.966;8.230;2023-06-05T02:31:25;5.00;;;3.72;;
37609;SDS011;23457;51.966;8.230;2023-06-05T02:33:53;6.70;;;4.18;;
37609;SDS011;23457;51.966;8.230;2023-06-05T02:36:22;6.32;;;3.90;;
37609;SDS011;23457;51.966;8.230;2023-06-05T02:38:51;8.55;;;4.18;;
37609;SDS011;23457;51.966;8.230;2023-06-05T02:41:20;9.43;;;4.65;;
37609;SDS011;23457;51.966;8.230;2023-06-05T02:43:50;10.90;;;5.00;;
37609;SDS011;23457;51.966;8.230;2023-06-05T02:46:17;8.57;;;4.50;;
37609;SDS011;23457;51.966;8.230;2023-06-05T02:48:45;8.43;;;4.93;;
37609;SDS011;23457;51.966;8.230;2023-06-05T02:51:12;7.45;;;5.20;;
37609;SDS011;23457;51.966;8.230;2023-06-05T02:53:41;7.22;;;4.80;;
37609;SDS011;23457;51.966;8.230;2023-06-05T02:56:08;8.82;;;4.93;;
37609;SDS011;23457;51.966;8.230;2023-06-05T02:58:35;11.55;;;5.22;;
37609;SDS011;23457;51.966;8.230;2023-06-05T03:01:02;10.55;;;5.72;;
37609;SDS011;23457;51.966;8.230;2023-06-05T03:03:35;9.40;;;5.35;;
37609;SDS011;23457;51.966;8.230;2023-06-05T03:06:02;10.93;;;6.07;;
37609;SDS011;23457;51.966;8.230;2023-06-05T03:08:40;9.25;;;5.25;;
37609;SDS011;23457;51.966;8.230;2023-06-05T03:11:11;11.25;;;6.00;;
37609;SDS011;23457;51.966;8.230;2023-06-05T03:13:39;10.50;;;6.32;;
37609;SDS011;23457;51.966;8.230;2023-06-05T03:16:06;9.88;;;6.57;;
37609;SDS011;23457;51.966;8.230;2023-06-05T03:18:37;9.75;;;5.68;;
37609;SDS011;23457;51.966;8.230;2023-06-05T03:21:04;13.40;;;6.25;;
37609;SDS011;23457;51.966;8.230;2023-06-05T03:23:32;12.13;;;6.80;;
37609;SDS011;23457;51.966;8.230;2023-06-05T03:26:03;10.55;;;6.65;;
37609;SDS011;23457;51.966;8.230;2023-06-05T03:28:30;9.40;;;6.43;;
37609;SDS011;23457;51.966;8.230;2023-06-05T03:31:03;8.93;;;5.82;;
37609;SDS011;23457;51.966;8.230;2023-06-05T03:33:34;12.77;;;7.22;;
37609;SDS011;23457;51.966;8.230;2023-06-05T03:36:01;11.80;;;6.57;;
37609;SDS011;23457;51.966;8.230;2023-06-05T03:38:29;14.73;;;6.85;;
37609;SDS011;23457;51.966;8.230;2023-06-05T03:40:56;12.77;;;6.38;;
37609;SDS011;23457;51.966;8.230;2023-06-05T03:43:23;11.90;;;6.47;;
37609;SDS011;23457;51.966;8.230;2023-06-05T03:45:51;9.43;;;6.68;;
37609;SDS011;23457;51.966;8.230;2023-06-05T03:48:20;14.27;;;7.63;;
37609;SDS011;23457;51.966;8.230;2023-06-05T03:50:48;13.05;;;6.95;;
37609;SDS011;23457;51.966;8.230;2023-06-05T03:53:18;10.93;;;7.03;;
37609;SDS011;23457;51.966;8.230;2023-06-05T03:55:45;10.27;;;7.63;;
37609;SDS011;23457;51.966;8.230;2023-06-05T03:58:23;11.43;;;7.22;;
37609;SDS011;23457;51.966;8.230;2023-06-05T04:00:54;14.70;;;7.43;;
37609;SDS011;23457;51.966;8.230;2023-06-05T04:03:21;14.02;;;7.13;;
37609;SDS011;23457;51.966;8.230;2023-06-05T04:05:52;13.13;;;7.25;;
37609;SDS011;23457;51.966;8.230;2023-06-05T04:08:18;13.30;;;7.22;;
37609;SDS011;23457;51.966;8.230;2023-06-05T04:10:45;11.55;;;7.22;;
37609;SDS011;23457;51.966;8.230;2023-06-05T04:13:12;13.00;;;7.50;;
37609;SDS011;23457;51.966;8.230;2023-06-05T04:15:39;12.73;;;7.53;;
37609;SDS011;23457;51.966;8.230;2023-06-05T04:18:06;11.57;;;7.22;;
37609;SDS011;23457;51.966;8.230;2023-06-05T04:20:34;13.82;;;8.27;;
37609;SDS011;23457;51.966;8.230;2023-06-05T04:23:01;14.90;;;7.47;;
37609;SDS011;23457;51.966;8.230;2023-06-05T04:25:29;13.77;;;7.55;;
37609;SDS011;23457;51.966;8.230;2023-06-05T04:27:56;10.75;;;7.78;;
37609;SDS011;23457;51.966;8.230;2023-06-05T04:30:23;11.45;;;7.78;;
37609;SDS011;23457;51.966;8.230;2023-06-05T04:32:57;11.48;;;7.38;;
37609;SDS011;23457;51.966;8.230;2023-06-05T04:35:25;12.93;;;7.75;;
37609;SDS011;23457;51.966;8.230;2023-06-05T04:37:53;11.95;;;7.63;;
37609;SDS011;23457;51.966;8.230;2023-06-05T04:40:20;12.98;;;7.75;;
37609;SDS011;23457;51.966;8.230;2023-06-05T04:42:48;12.68;;;7.20;;
37609;SDS011;23457;51.966;8.230;2023-06-05T04:45:16;11.50;;;7.20;;
37609;SDS011;23457;51.966;8.230;2023-06-05T04:47:46;15.45;;;7.97;;
37609;SDS011;23457;51.966;8.230;2023-06-05T04:50:23;12.55;;;7.63;;
37609;SDS011;23457;51.966;8.230;2023-06-05T04:53:01;14.18;;;7.72;;
37609;SDS011;23457;51.966;8.230;2023-06-05T04:55:29;14.20;;;8.10;;
37609;SDS011;23457;51.966;8.230;2023-06-05T04:57:56;11.68;;;7.47;;
37609;SDS011;23457;51.966;8.230;2023-06-05T05:00:29;13.32;;;7.57;;
37609;SDS011;23457;51.966;8.230;2023-06-05T05:02:57;13.82;;;7.43;;
37609;SDS011;23457;51.966;8.230;2023-06-05T05:05:27;11.75;;;7.03;;
37609;SDS011;23457;51.966;8.230;2023-06-05T05:07:54;13.65;;;8.20;;
37609;SDS011;23457;51.966;8.230;2023-06-05T05:10:25;13.05;;;8.02;;
37609;SDS011;23457;51.966;8.230;2023-06-05T05:12:52;12.07;;;7.85;;
37609;SDS011;23457;51.966;8.230;2023-06-05T05:15:20;14.50;;;7.95;;
37609;SDS011;23457;51.966;8.230;2023-06-05T05:17:47;17.70;;;8.20;;
37609;SDS011;23457;51.966;8.230;2023-06-05T05:20:16;13.20;;;7.10;;
37609;SDS011;23457;51.966;8.230;2023-06-05T05:22:43;11.18;;;6.55;;
37609;SDS011;23457;51.966;8.230;2023-06-05T05:25:11;10.95;;;7.15;;
37609;SDS011;23457;51.966;8.230;2023-06-05T05:27:41;11.07;;;7.03;;
37609;SDS011;23457;51.966;8.230;2023-06-05T05:30:08;13.27;;;7.28;;
37609;SDS011;23457;51.966;8.230;2023-06-05T05:32:36;13.90;;;7.60;;
37609;SDS011;23457;51.966;8.230;2023-06-05T05:35:03;14.57;;;7.60;;
37609;SDS011;23457;51.966;8.230;2023-06-05T05:37:32;10.83;;;6.60;;
37609;SDS011;23457;51.966;8.230;2023-06-05T05:39:59;15.05;;;7.63;;
37609;SDS011;23457;51.966;8.230;2023-06-05T05:42:25;10.93;;;7.55;;
37609;SDS011;23457;51.966;8.230;2023-06-05T05:44:52;12.65;;;7.43;;
37609;SDS011;23457;51.966;8.230;2023-06-05T05:47:19;9.93;;;7.10;;
37609;SDS011;23457;51.966;8.230;2023-06-05T05:49:46;12.05;;;7.13;;
37609;SDS011;23457;51.966;8.230;2023-06-05T05:52:12;10.40;;;6.30;;
37609;SDS011;23457;51.966;8.230;2023-06-05T05:54:39;12.35;;;6.68;;
37609;SDS011;23457;51.966;8.230;2023-06-05T05:57:06;12.75;;;7.40;;
37609;SDS011;23457;51.966;8.230;2023-06-05T05:59:33;14.05;;;8.15;;
37609;SDS011;23457;51.966;8.230;2023-06-05T06:02:00;21.60;;;8.95;;
37609;SDS011;23457;51.966;8.230;2023-06-05T06:04:28;13.35;;;6.50;;
37609;SDS011;23457;51.966;8.230;2023-06-05T06:06:55;12.45;;;6.88;;
37609;SDS011;23457;51.966;8.230;2023-06-05T06:09:22;9.63;;;6.22;;
37609;SDS011;23457;51.966;8.230;2023-06-05T06:11:49;13.98;;;6.25;;
37609;SDS011;23457;51.966;8.230;2023-06-05T06:14:16;13.98;;;6.60;;
37609;SDS011;23457;51.966;8.230;2023-06-05T06:16:43;11.25;;;6.53;;
37609;SDS011;23457;51.966;8.230;2023-06-05T06:19:10;10.90;;;6.80;;
37609;SDS011;23457;51.966;8.230;2023-06-05T06:21:40;13.38;;;7.13;;
37609;SDS011;23457;51.966;8.230;2023-06-05T06:24:07;12.40;;;6.57;;
37609;SDS011;23457;51.966;8.230;2023-06-05T06:26:34;11.73;;;7.30;;
37609;SDS011;23457;51.966;8.230;2023-06-05T06:29:05;10.52;;;6.50;;
37609;SDS011;23457;51.966;8.230;2023-06-05T06:31:32;12.35;;;6.38;;
37609;SDS011;23457;51.966;8.230;2023-06-05T06:33:59;9.57;;;6.78;;
37609;SDS011;23457;51.966;8.230;2023-06-05T06:36:26;9.00;;;6.35;;
37609;SDS011;23457;51.966;8.230;2023-06-05T06:38:53;14.65;;;6.65;;
37609;SDS011;23457;51.966;8.230;2023-06-05T06:43:49;9.52;;;6.72;;
37609;SDS011;23457;51.966;8.230;2023-06-05T06:46:16;12.93;;;6.25;;
37609;SDS011;23457;51.966;8.230;2023-06-05T06:48:43;8.65;;;6.10;;
37609;SDS011;23457;51.966;8.230;2023-06-05T06:51:09;10.57;;;6.72;;
37609;SDS011;23457;51.966;8.230;2023-06-05T06:53:37;12.93;;;6.85;;
37609;SDS011;23457;51.966;8.230;2023-06-05T06:56:03;14.40;;;6.10;;
37609;SDS011;23457;51.966;8.230;2023-06-05T06:58:31;8.63;;;5.72;;
37609;SDS011;23457;51.966;8.230;2023-06-05T07:00:58;11.90;;;6.25;;
37609;SDS011;23457;51.966;8.230;2023-06-05T07:03:25;12.38;;;5.80;;
37609;SDS011;23457;51.966;8.230;2023-06-05T07:05:52;9.13;;;5.90;;
37609;SDS011;23457;51.966;8.230;2023-06-05T07:08:19;8.98;;;5.43;;
37609;SDS011;23457;51.966;8.230;2023-06-05T07:10:45;7.93;;;5.10;;
37609;SDS011;23457;51.966;8.230;2023-06-05T07:13:12;10.45;;;5.18;;
37609;SDS011;23457;51.966;8.230;2023-06-05T07:15:39;10.18;;;5.13;;
37609;SDS011;23457;51.966;8.230;2023-06-05T07:18:06;8.77;;;5.25;;
37609;SDS011;23457;51.966;8.230;2023-06-05T07:20:33;10.82;;;4.97;;
37609;SDS011;23457;51.966;8.230;2023-06-05T07:22:59;11.23;;;5.18;;
37609;SDS011;23457;51.966;8.230;2023-06-05T07:25:26;10.60;;;5.53;;
37609;SDS011;23457;51.966;8.230;2023-06-05T07:27:54;11.40;;;5.85;;
37609;SDS011;23457;51.966;8.230;2023-06-05T07:30:21;8.35;;;5.70;;
37609;SDS011;23457;51.966;8.230;2023-06-05T07:32:48;10.85;;;5.55;;
37609;SDS011;23457;51.966;8.230;2023-06-05T07:35:15;9.13;;;5.35;;
37609;SDS011;23457;51.966;8.230;2023-06-05T07:37:42;10.13;;;5.25;;
37609;SDS011;23457;51.966;8.230;2023-06-05T07:40:09;7.43;;;5.03;;
37609;SDS011;23457;51.966;8.230;2023-06-05T07:42:37;8.80;;;5.43;;
37609;SDS011;23457;51.966;8.230;2023-06-05T07:45:09;9.57;;;5.53;;
37609;SDS011;23457;51.966;8.230;2023-06-05T07:47:36;8.32;;;5.10;;
37609;SDS011;23457;51.966;8.230;2023-06-05T07:50:03;7.30;;;4.88;;
37609;SDS011;23457;51.966;8.230;2023-06-05T07:52:33;11.73;;;5.20;;
37609;SDS011;23457;51.966;8.230;2023-06-05T07:54:59;9.82;;;5.30;;
37609;SDS011;23457;51.966;8.230;2023-06-05T07:57:26;12.10;;;5.00;;
37609;SDS011;23457;51.966;8.230;2023-06-05T07:59:56;11.73;;;5.00;;
37609;SDS011;23457;51.966;8.230;2023-06-05T08:02:23;6.25;;;4.25;;
37609;SDS011;23457;51.966;8.230;2023-06-05T08:04:50;6.63;;;4.32;;
37609;SDS011;23457;51.966;8.230;2023-06-05T08:07:17;9.45;;;4.50;;
37609;SDS011;23457;51.966;8.230;2023-06-05T08:09:43;10.38;;;4.75;;
37609;SDS011;23457;51.966;8.230;2023-06-05T08:12:10;7.68;;;4.53;;
37609;SDS011;23457;51.966;8.230;2023-06-05T08:14:37;7.55;;;4.45;;
37609;SDS011;23457;51.966;8.230;2023-06-05T08:17:04;7.53;;;4.22;;
37609;SDS011;23457;51.966;8.230;2023-06-05T08:19:31;8.32;;;4.97;;
37609;SDS011;23457;51.966;8.230;2023-06-05T08:21:57;11.43;;;4.50;;
37609;SDS011;23457;51.966;8.230;2023-06-05T08:24:25;6.70;;;4.22;;
37609;SDS011;23457;51.966;8.230;2023-06-05T08:26:53;8.57;;;4.37;;
37609;SDS011;23457;51.966;8.230;2023-06-05T08:29:20;9.32;;;4.03;;
37609;SDS011;23457;51.966;8.230;2023-06-05T08:31:47;9.00;;;4.15;;
37609;SDS011;23457;51.966;8.230;2023-06-05T08:34:14;6.57;;;4.30;;
37609;SDS011;23457;51.966;8.230;2023-06-05T08:36:40;7.85;;;4.05;;
37609;SDS011;23457;51.966;8.230;2023-06-05T08:39:09;10.60;;;4.60;;
37609;SDS011;23457;51.966;8.230;2023-06-05T08:41:36;7.80;;;4.28;;
37609;SDS011;23457;51.966;8.230;2023-06-05T08:44:04;7.53;;;4.38;;
37609;SDS011;23457;51.966;8.230;2023-06-05T08:46:33;9.30;;;4.38;;
37609;SDS011;23457;51.966;8.230;2023-06-05T08:49:08;12.80;;;4.38;;
37609;SDS011;23457;51.966;8.230;2023-06-05T08:51:38;9.25;;;4.30;;
37609;SDS011;23457;51.966;8.230;2023-06-05T08:54:06;9.55;;;3.97;;
37609;SDS011;23457;51.966;8.230;2023-06-05T08:56:40;8.45;;;4.25;;
37609;SDS011;23457;51.966;8.230;2023-06-05T08:59:08;10.05;;;4.45;;
37609;SDS011;23457;51.966;8.230;2023-06-05T09:01:37;9.52;;;4.30;;
37609;SDS011;23457;51.966;8.230;2023-06-05T09:04:04;7.38;;;3.92;;
37609;SDS011;23457;51.966;8.230;2023-06-05T09:06:31;8.00;;;3.60;;
37609;SDS011;23457;51.966;8.230;2023-06-05T09:08:59;8.77;;;4.53;;
37609;SDS011;23457;51.966;8.230;2023-06-05T09:11:31;10.57;;;4.07;;
37609;SDS011;23457;51.966;8.230;2023-06-05T09:13:59;12.60;;;4.78;;
37609;SDS011;23457;51.966;8.230;2023-06-05T09:16:40;8.20;;;3.83;;
37609;SDS011;23457;51.966;8.230;2023-06-05T09:19:09;6.30;;;4.03;;
37609;SDS011;23457;51.966;8.230;2023-06-05T09:21:38;18.50;;;3.95;;
37609;SDS011;23457;51.966;8.230;2023-06-05T09:24:13;12.23;;;4.25;;
37609;SDS011;23457;51.966;8.230;2023-06-05T09:26:45;6.97;;;3.85;;
37609;SDS011;23457;51.966;8.230;2023-06-05T09:29:28;9.45;;;3.65;;
37609;SDS011;23457;51.966;8.230;2023-06-05T09:31:56;5.13;;;3.05;;
37609;SDS011;23457;51.966;8.230;2023-06-05T09:36:57;14.45;;;3.83;;
37609;SDS011;23457;51.966;8.230;2023-06-05T09:39:29;6.28;;;3.15;;
37609;SDS011;23457;51.966;8.230;2023-06-05T09:41:58;9.00;;;3.20;;
37609;SDS011;23457;51.966;8.230;2023-06-05T09:44:26;11.40;;;3.88;;
37609;SDS011;23457;51.966;8.230;2023-06-05T09:46:54;5.22;;;3.13;;
37609;SDS011;23457;51.966;8.230;2023-06-05T09:49:49;8.88;;;3.60;;
37609;SDS011;23457;51.966;8.230;2023-06-05T09:52:13;7.80;;;2.95;;
37609;SDS011;23457;51.966;8.230;2023-06-05T09:54:41;8.32;;;3.53;;
37609;SDS011;23457;51.966;8.230;2023-06-05T09:57:12;7.38;;;3.80;;
37609;SDS011;23457;51.966;8.230;2023-06-05T10:02:24;11.63;;;3.58;;
37609;SDS011;23457;51.966;8.230;2023-06-05T10:04:56;11.98;;;3.95;;
37609;SDS011;23457;51.966;8.230;2023-06-05T10:07:26;5.80;;;3.30;;
37609;SDS011;23457;51.966;8.230;2023-06-05T10:09:54;8.88;;;3.90;;
37609;SDS011;23457;51.966;8.230;2023-06-05T10:12:22;11.18;;;3.70;;
37609;SDS011;23457;51.966;8.230;2023-06-05T10:17:18;7.90;;;3.80;;
37609;SDS011;23457;51.966;8.230;2023-06-05T10:19:46;7.20;;;3.90;;
37609;SDS011;23457;51.966;8.230;2023-06-05T10:22:12;6.82;;;3.58;;
37609;SDS011;23457;51.966;8.230;2023-06-05T10:24:44;9.30;;;3.80;;
37609;SDS011;23457;51.966;8.230;2023-06-05T10:27:16;6.40;;;3.45;;
37609;SDS011;23457;51.966;8.230;2023-06-05T10:38:16;7.55;;;3.75;;
37609;SDS011;23457;51.966;8.230;2023-06-05T10:40:45;6.28;;;3.97;;
37609;SDS011;23457;51.966;8.230;2023-06-05T10:51:47;6.95;;;3.40;;
37609;SDS011;23457;51.966;8.230;2023-06-05T11:00:04;5.78;;;3.10;;
37609;SDS011;23457;51.966;8.230;2023-06-05T11:15:03;4.45;;;2.38;;
37609;SDS011;23457;51.966;8.230;2023-06-05T11:17:33;3.10;;;2.30;;
37609;SDS011;23457;51.966;8.230;2023-06-05T11:20:05;4.90;;;2.08;;
37609;SDS011;23457;51.966;8.230;2023-06-05T11:23:10;2.97;;;2.08;;
37609;SDS011;23457;51.966;8.230;2023-06-05T11:25:30;3.08;;;2.08;;
37609;SDS011;23457;51.966;8.230;2023-06-05T11:28:03;5.50;;;2.42;;
37609;SDS011;23457;51.966;8.230;2023-06-05T11:30:33;3.08;;;1.63;;
37609;SDS011;23457;51.966;8.230;2023-06-05T11:35:36;3.47;;;1.88;;
37609;SDS011;23457;51.966;8.230;2023-06-05T11:38:14;4.05;;;1.95;;
37609;SDS011;23457;51.966;8.230;2023-06-05T11:40:50;1.98;;;1.65;;
37609;SDS011;23457;51.966;8.230;2023-06-05T11:43:18;4.32;;;2.05;;
37609;SDS011;23457;51.966;8.230;2023-06-05T11:45:48;5.15;;;1.50;;
37609;SDS011;23457;51.966;8.230;2023-06-05T11:48:20;2.08;;;1.70;;
37609;SDS011;23457;51.966;8.230;2023-06-05T11:51:05;4.82;;;1.70;;
37609;SDS011;23457;51.966;8.230;2023-06-05T11:53:32;2.78;;;1.70;;
37609;SDS011;23457;51.966;8.230;2023-06-05T11:56:00;5.03;;;1.90;;
37609;SDS011;23457;51.966;8.230;2023-06-05T11:58:30;3.05;;;1.73;;
37609;SDS011;23457;51.966;8.230;2023-06-05T12:01:05;5.43;;;1.92;;
37609;SDS011;23457;51.966;8.230;2023-06-05T12:03:49;5.72;;;2.20;;
37609;SDS011;23457;51.966;8.230;2023-06-05T12:06:30;2.58;;;2.05;;
37609;SDS011;23457;51.966;8.230;2023-06-05T12:09:09;3.75;;;2.47;;
37609;SDS011;23457;51.966;8.230;2023-06-05T12:11:37;2.53;;;2.00;;
37609;SDS011;23457;51.966;8.230;2023-06-05T12:14:05;3.72;;;2.10;;
37609;SDS011;23457;51.966;8.230;2023-06-05T12:16:36;5.80;;;2.40;;
37609;SDS011;23457;51.966;8.230;2023-06-05T12:19:14;3.92;;;2.05;;
37609;SDS011;23457;51.966;8.230;2023-06-05T12:21:45;2.80;;;1.92;;
37609;SDS011;23457;51.966;8.230;2023-06-05T12:24:13;6.63;;;2.22;;
37609;SDS011;23457;51.966;8.230;2023-06-05T12:27:15;4.07;;;2.30;;
37609;SDS011;23457;51.966;8.230;2023-06-05T12:29:35;5.75;;;2.03;;
37609;SDS011;23457;51.966;8.230;2023-06-05T12:32:24;5.00;;;2.13;;
37609;SDS011;23457;51.966;8.230;2023-06-05T12:34:52;5.47;;;2.05;;
37609;SDS011;23457;51.966;8.230;2023-06-05T12:37:30;3.92;;;2.13;;
37609;SDS011;23457;51.966;8.230;2023-06-05T12:39:59;2.47;;;1.75;;
37609;SDS011;23457;51.966;8.230;2023-06-05T12:42:28;5.72;;;1.88;;
37609;SDS011;23457;51.966;8.230;2023-06-05T12:45:02;3.72;;;1.90;;
37609;SDS011;23457;51.966;8.230;2023-06-05T12:47:29;2.60;;;1.70;;
37609;SDS011;23457;51.966;8.230;2023-06-05T12:49:56;6.25;;;1.98;;
37609;SDS011;23457;51.966;8.230;2023-06-05T12:52:30;3.05;;;1.98;;
37609;SDS011;23457;51.966;8.230;2023-06-05T12:54:58;3.97;;;2.00;;
37609;SDS011;23457;51.966;8.230;2023-06-05T12:57:25;5.32;;;1.77;;
37609;SDS011;23457;51.966;8.230;2023-06-05T12:59:53;4.72;;;2.33;;
37609;SDS011;23457;51.966;8.230;2023-06-05T13:02:22;3.55;;;1.73;;
37609;SDS011;23457;51.966;8.230;2023-06-05T13:04:49;7.07;;;2.20;;
37609;SDS011;23457;51.966;8.230;2023-06-05T13:07:16;4.53;;;2.00;;
37609;SDS011;23457;51.966;8.230;2023-06-05T13:09:43;2.85;;;1.70;;
37609;SDS011;23457;51.966;8.230;2023-06-05T13:12:10;4.88;;;1.90;;
37609;SDS011;23457;51.966;8.230;2023-06-05T13:14:37;4.68;;;2.00;;
37609;SDS011;23457;51.966;8.230;2023-06-05T13:17:04;2.22;;;1.80;;
37609;SDS011;23457;51.966;8.230;2023-06-05T13:19:31;6.60;;;2.15;;
37609;SDS011;23457;51.966;8.230;2023-06-05T13:21:58;3.53;;;2.28;;
37609;SDS011;23457;51.966;8.230;2023-06-05T13:24:24;4.35;;;2.17;;
37609;SDS011;23457;51.966;8.230;2023-06-05T13:26:52;5.57;;;1.88;;
37609;SDS011;23457;51.966;8.230;2023-06-05T13:29:18;5.38;;;2.13;;
37609;SDS011;23457;51.966;8.230;2023-06-05T13:31:46;4.30;;;2.03;;
37609;SDS011;23457;51.966;8.230;2023-06-05T13:34:12;2.15;;;1.65;;
37609;SDS011;23457;51.966;8.230;2023-06-05T13:36:39;3.85;;;1.92;;
37609;SDS011;23457;51.966;8.230;2023-06-05T13:39:06;5.15;;;2.00;;
37609;SDS011;23457;51.966;8.230;2023-06-05T13:41:33;3.58;;;1.92;;
37609;SDS011;23457;51.966;8.230;2023-06-05T13:44:01;4.15;;;2.20;;
37609;SDS011;23457;51.966;8.230;2023-06-05T13:46:28;4.55;;;2.25;;
37609;SDS011;23457;51.966;8.230;2023-06-05T13:48:55;4.07;;;2.20;;
37609;SDS011;23457;51.966;8.230;2023-06-05T13:51:26;6.03;;;2.28;;
37609;SDS011;23457;51.966;8.230;2023-06-05T13:53:53;2.13;;;1.92;;
37609;SDS011;23457;51.966;8.230;2023-06-05T13:56:23;2.47;;;1.95;;
37609;SDS011;23457;51.966;8.230;2023-06-05T13:58:50;2.55;;;1.80;;
37609;SDS011;23457;51.966;8.230;2023-06-05T14:01:17;5.00;;;1.90;;
37609;SDS011;23457;51.966;8.230;2023-06-05T14:03:44;4.80;;;2.08;;
37609;SDS011;23457;51.966;8.230;2023-06-05T14:06:13;3.63;;;2.30;;
37609;SDS011;23457;51.966;8.230;2023-06-05T14:08:40;3.55;;;2.15;;
37609;SDS011;23457;51.966;8.230;2023-06-05T14:11:06;4.47;;;1.98;;
37609;SDS011;23457;51.966;8.230;2023-06-05T14:13:36;3.25;;;1.85;;
37609;SDS011;23457;51.966;8.230;2023-06-05T14:16:03;5.35;;;2.30;;
37609;SDS011;23457;51.966;8.230;2023-06-05T14:18:30;7.45;;;2.40;;
37609;SDS011;23457;51.966;8.230;2023-06-05T14:20:57;5.05;;;2.00;;
37609;SDS011;23457;51.966;8.230;2023-06-05T14:23:24;4.65;;;2.05;;
37609;SDS011;23457;51.966;8.230;2023-06-05T14:25:52;3.40;;;2.28;;
37609;SDS011;23457;51.966;8.230;2023-06-05T14:28:19;3.65;;;1.88;;
37609;SDS011;23457;51.966;8.230;2023-06-05T14:30:46;4.18;;;1.75;;
37609;SDS011;23457;51.966;8.230;2023-06-05T14:33:13;3.85;;;2.33;;
37609;SDS011;23457;51.966;8.230;2023-06-05T14:35:41;2.72;;;1.92;;
37609;SDS011;23457;51.966;8.230;2023-06-05T14:38:09;6.63;;;1.98;;
37609;SDS011;23457;51.966;8.230;2023-06-05T14:40:39;5.03;;;1.90;;
37609;SDS011;23457;51.966;8.230;2023-06-05T14:43:06;3.17;;;2.10;;
37609;SDS011;23457;51.966;8.230;2023-06-05T14:45:33;3.17;;;2.00;;
37609;SDS011;23457;51.966;8.230;2023-06-05T14:48:00;4.93;;;1.80;;
37609;SDS011;23457;51.966;8.230;2023-06-05T14:50:27;3.25;;;2.10;;
37609;SDS011;23457;51.966;8.230;2023-06-05T14:52:55;3.95;;;2.10;;
37609;SDS011;23457;51.966;8.230;2023-06-05T14:55:22;2.70;;;1.60;;
37609;SDS011;23457;51.966;8.230;2023-06-05T14:57:49;4.22;;;2.03;;
37609;SDS011;23457;51.966;8.230;2023-06-05T15:00:16;2.88;;;1.90;;
37609;SDS011;23457;51.966;8.230;2023-06-05T15:02:43;4.35;;;1.95;;
37609;SDS011;23457;51.966;8.230;2023-06-05T15:05:10;8.18;;;2.13;;
37609;SDS011;23457;51.966;8.230;2023-06-05T15:07:38;1.95;;;1.65;;
37609;SDS011;23457;51.966;8.230;2023-06-05T15:10:06;5.50;;;2.08;;
37609;SDS011;23457;51.966;8.230;2023-06-05T15:12:35;3.65;;;2.00;;
37609;SDS011;23457;51.966;8.230;2023-06-05T15:15:02;4.78;;;2.00;;
37609;SDS011;23457;51.966;8.230;2023-06-05T15:17:33;3.00;;;2.00;;
37609;SDS011;23457;51.966;8.230;2023-06-05T15:20:00;3.13;;;1.90;;
37609;SDS011;23457;51.966;8.230;2023-06-05T15:22:27;3.58;;;1.98;;
37609;SDS011;23457;51.966;8.230;2023-06-05T15:24:54;7.00;;;1.98;;
37609;SDS011;23457;51.966;8.230;2023-06-05T15:27:21;5.15;;;2.33;;
37609;SDS011;23457;51.966;8.230;2023-06-05T15:29:48;5.63;;;1.73;;
37609;SDS011;23457;51.966;8.230;2023-06-05T15:32:15;6.40;;;1.92;;
37609;SDS011;23457;51.966;8.230;2023-06-05T15:34:46;5.22;;;2.08;;
37609;SDS011;23457;51.966;8.230;2023-06-05T15:37:13;5.57;;;2.15;;
37609;SDS011;23457;51.966;8.230;2023-06-05T15:39:41;5.10;;;2.58;;
37609;SDS011;23457;51.966;8.230;2023-06-05T15:42:08;3.22;;;2.03;;
37609;SDS011;23457;51.966;8.230;2023-06-05T15:44:38;4.07;;;2.00;;